CDT,Max TemperatureF,Mean TemperatureF,Min TemperatureF,Max Dew PointF,MeanDew PointF,Min DewpointF,Max Humidity, Mean Humidity, Min Humidity, Max Sea Level PressureIn, Mean Sea Level PressureIn, Min Sea Level PressureIn, Max VisibilityMiles, Mean VisibilityMiles, Min VisibilityMiles, Max Wind SpeedMPH, Mean Wind SpeedMPH, Max Gust SpeedMPH,PrecipitationIn, CloudCover, Events, WindDirDegrees
2011-10-1,73,58,42,46,41,37,93,63,27,30.31,30.24,30.20,10,10,7,8,2,,0.00,0,,57
2011-10-2,75,58,41,46,43,39,93,64,29,30.31,30.24,30.18,10,10,10,9,4,,0.00,0,,116
2011-10-3,78,60,42,46,44,41,93,59,30,30.28,30.22,30.17,10,10,10,12,4,18,0.00,0,,150
2011-10-4,80,63,46,50,44,43,93,49,26,30.28,30.21,30.16,10,10,10,12,6,16,0.00,0,,156
2011-10-5,80,62,44,46,43,41,87,50,28,30.20,30.15,30.07,10,10,10,17,8,22,0.00,0,,142
2011-10-6,82,70,57,50,47,45,63,45,28,30.11,30.05,29.99,10,10,10,24,10,30,0.00,0,,142
2011-10-7,82,73,64,61,54,50,68,51,35,30.13,30.07,30.02,10,10,1,22,14,34,0.00,0,,152
2011-10-8,82,74,66,59,55,50,73,53,37,30.18,30.09,30.04,10,10,10,22,12,30,0.00,0,,147
2011-10-9,80,72,64,59,55,52,83,55,39,30.14,30.08,30.02,10,10,10,20,13,24,0.00,1,Rain,137
2011-10-10,71,63,55,63,60,55,100,87,64,30.11,30.06,30.01,10,8,2,8,2,,0.30,5,Rain,187
2011-10-11,77,64,51,64,59,52,100,86,54,30.02,29.93,29.84,10,7,0,14,2,17,0.00,5,Fog,180
2011-10-12,80,70,59,63,57,48,100,72,34,29.85,29.79,29.71,10,9,2,16,6,24,0.17,1,Rain-Thunderstorm,243
2011-10-13,77,64,51,50,43,36,77,51,22,29.98,29.91,29.86,10,10,10,13,7,22,0.00,0,,310
2011-10-14,78,60,42,46,43,41,93,60,28,30.03,29.97,29.93,10,10,10,8,2,,0.00,0,,41
2011-10-15,80,63,46,52,41,36,71,49,26,30.16,30.08,30.00,10,10,10,12,6,16,0.00,0,,114
2011-10-16,87,73,59,54,50,45,63,47,29,30.01,29.96,29.89,10,10,10,18,9,25,0.00,0,,204
2011-10-17,86,68,51,59,50,37,82,54,33,29.98,29.84,29.68,10,10,10,22,11,31,0.00,0,,95
2011-10-18,64,54,44,41,35,28,87,54,29,30.07,30.01,29.91,10,10,5,18,13,32,0.00,3,Rain-Thunderstorm,343
2011-10-19,55,44,33,32,27,21,93,52,26,30.10,30.06,30.03,10,10,10,21,8,31,0.00,0,,330
2011-10-20,60,43,26,32,28,21,93,60,31,30.17,30.11,30.07,10,10,10,10,2,,0.00,0,,307
2011-10-21,71,52,33,39,35,32,93,59,27,30.23,30.17,30.12,10,10,10,9,3,,0.00,0,,144
2011-10-22,77,59,41,57,46,37,88,67,39,30.14,30.09,29.95,10,9,2,18,3,23,0.55,1,Rain-Thunderstorm,88
2011-10-23,71,58,46,61,52,45,100,82,50,30.09,30.05,30.00,10,7,0,8,3,,0.00,3,Fog,238
2011-10-24,80,64,48,59,53,46,100,71,34,30.20,30.14,30.09,10,8,0,14,6,20,0.00,0,Fog,184
2011-10-25,82,68,55,59,55,52,94,65,37,30.11,29.98,29.86,10,10,10,30,13,37,0.00,0,,183
2011-10-26,68,60,53,63,51,45,100,78,63,30.00,29.94,29.86,10,10,5,15,8,21,0.08,4,Rain-Thunderstorm,36
2011-10-27,53,48,44,45,41,37,100,72,54,30.16,30.11,30.04,10,10,7,18,7,24,0.06,3,Rain,27
2011-10-28,59,46,33,43,34,27,100,65,31,30.30,30.25,30.19,10,10,7,13,2,18,0.00,1,,328
2011-10-29,66,49,32,39,33,30,100,65,28,30.28,30.19,30.06,10,10,3,17,4,23,0.00,0,,192
2011-10-30,66,54,42,37,35,34,76,54,32,30.20,30.13,30.08,10,10,7,15,8,22,0.00,0,,206
2011-10-31,71,52,32,43,36,30,100,65,29,30.22,30.17,30.08,10,10,10,16,3,22,0.00,0,,195